sensor_id;sensor_type;location;lat;lon;timestamp;pressure;altitude;pressure_sealevel;temperature;humidity
68197;BME280;55019;49.382;11.358;2022-09-09T00:00:56;96389.28;;;12.74;86.99
68197;BME280;55019;49.382;11.358;2022-09-09T00:03:43;96396.63;;;12.70;86.82
68197;BME280;55019;49.382;11.358;2022-09-09T00:11:46;96384.09;;;12.74;86.59
68197;BME280;55019;49.382;11.358;2022-09-09T00:19:59;96376.25;;;12.67;86.31
68197;BME280;55019;49.382;11.358;2022-09-09T00:22:29;96366.25;;;12.64;86.91
68197;BME280;55019;49.382;11.358;2022-09-09T00:25:24;96365.44;;;12.64;86.88
68197;BME280;55019;49.382;11.358;2022-09-09T00:27:52;96363.13;;;12.54;87.16
68197;BME280;55019;49.382;11.358;2022-09-09T00:30:19;96367.59;;;12.60;87.26
68197;BME280;55019;49.382;11.358;2022-09-09T00:32:49;96375.53;;;12.73;86.78
68197;BME280;55019;49.382;11.358;2022-09-09T00:37:57;96368.63;;;12.66;87.28
68197;BME280;55019;49.382;11.358;2022-09-09T00:43:08;96373.13;;;12.57;87.09
68197;BME280;55019;49.382;11.358;2022-09-09T00:45:52;96371.06;;;12.53;87.73
68197;BME280;55019;49.382;11.358;2022-09-09T00:48:22;96374.56;;;12.60;87.79
68197;BME280;55019;49.382;11.358;2022-09-09T00:50:53;96365.00;;;12.60;87.69
68197;BME280;55019;49.382;11.358;2022-09-09T00:53:51;96366.94;;;12.73;87.23
68197;BME280;55019;49.382;11.358;2022-09-09T00:56:23;96367.50;;;12.68;87.25
68197;BME280;55019;49.382;11.358;2022-09-09T00:59:03;96371.69;;;12.69;87.05
68197;BME280;55019;49.382;11.358;2022-09-09T01:01:33;96365.97;;;12.59;86.88
68197;BME280;55019;49.382;11.358;2022-09-09T01:03:58;96376.09;;;12.54;87.21
68197;BME280;55019;49.382;11.358;2022-09-09T01:06:36;96380.56;;;12.60;87.24
68197;BME280;55019;49.382;11.358;2022-09-09T01:09:25;96377.97;;;12.60;87.04
68197;BME280;55019;49.382;11.358;2022-09-09T01:12:09;96379.28;;;12.71;86.34
68197;BME280;55019;49.382;11.358;2022-09-09T01:14:44;96379.09;;;12.72;86.41
68197;BME280;55019;49.382;11.358;2022-09-09T01:17:30;96380.97;;;12.64;86.59
68197;BME280;55019;49.382;11.358;2022-09-09T01:20:11;96375.72;;;12.57;87.14
68197;BME280;55019;49.382;11.358;2022-09-09T01:23:04;96375.47;;;12.52;87.23
68197;BME280;55019;49.382;11.358;2022-09-09T01:28:16;96367.50;;;12.39;88.31
68197;BME280;55019;49.382;11.358;2022-09-09T01:30:44;96374.91;;;12.42;88.00
68197;BME280;55019;49.382;11.358;2022-09-09T01:33:14;96373.19;;;12.49;87.92
68197;BME280;55019;49.382;11.358;2022-09-09T01:38:41;96366.78;;;12.45;87.47
68197;BME280;55019;49.382;11.358;2022-09-09T01:41:07;96375.53;;;12.59;86.96
68197;BME280;55019;49.382;11.358;2022-09-09T01:43:32;96376.78;;;12.77;85.95
68197;BME280;55019;49.382;11.358;2022-09-09T01:46:00;96367.50;;;12.68;86.27
68197;BME280;55019;49.382;11.358;2022-09-09T01:48:28;96367.03;;;12.79;85.85
68197;BME280;55019;49.382;11.358;2022-09-09T01:50:55;96372.81;;;12.81;85.88
68197;BME280;55019;49.382;11.358;2022-09-09T01:53:21;96380.97;;;12.64;86.54
68197;BME280;55019;49.382;11.358;2022-09-09T02:03:59;96368.94;;;12.56;88.17
68197;BME280;55019;49.382;11.358;2022-09-09T02:06:37;96363.41;;;12.59;88.97
68197;BME280;55019;49.382;11.358;2022-09-09T02:09:06;96366.59;;;12.76;88.65
68197;BME280;55019;49.382;11.358;2022-09-09T02:11:33;96369.97;;;12.76;88.53
68197;BME280;55019;49.382;11.358;2022-09-09T02:14:24;96372.56;;;12.91;87.63
68197;BME280;55019;49.382;11.358;2022-09-09T02:16:53;96352.25;;;12.94;87.54
68197;BME280;55019;49.382;11.358;2022-09-09T02:19:27;96368.53;;;12.88;88.01
68197;BME280;55019;49.382;11.358;2022-09-09T02:21:56;96359.44;;;12.78;88.73
68197;BME280;55019;49.382;11.358;2022-09-09T02:24:24;96359.88;;;12.67;88.13
68197;BME280;55019;49.382;11.358;2022-09-09T02:26:53;96362.72;;;12.72;88.09
68197;BME280;55019;49.382;11.358;2022-09-09T02:29:31;96353.91;;;12.66;88.11
68197;BME280;55019;49.382;11.358;2022-09-09T02:32:01;96356.88;;;12.63;88.45
68197;BME280;55019;49.382;11.358;2022-09-09T02:34:31;96349.19;;;12.55;88.87
68197;BME280;55019;49.382;11.358;2022-09-09T02:37:00;96351.06;;;12.61;89.56
68197;BME280;55019;49.382;11.358;2022-09-09T02:39:27;96354.53;;;12.68;89.17
68197;BME280;55019;49.382;11.358;2022-09-09T02:41:52;96353.31;;;12.85;88.24
68197;BME280;55019;49.382;11.358;2022-09-09T02:44:18;96354.69;;;12.81;88.11
68197;BME280;55019;49.382;11.358;2022-09-09T02:52:20;96344.31;;;12.81;88.65
68197;BME280;55019;49.382;11.358;2022-09-09T02:54:57;96354.22;;;12.92;87.90
68197;BME280;55019;49.382;11.358;2022-09-09T02:57:27;96357.72;;;12.85;87.73
68197;BME280;55019;49.382;11.358;2022-09-09T02:59:53;96355.56;;;12.88;87.99
68197;BME280;55019;49.382;11.358;2022-09-09T03:02:21;96351.53;;;13.00;87.83
68197;BME280;55019;49.382;11.358;2022-09-09T03:04:47;96352.25;;;12.94;87.69
68197;BME280;55019;49.382;11.358;2022-09-09T03:07:16;96357.38;;;13.02;87.43
68197;BME280;55019;49.382;11.358;2022-09-09T03:09:42;96352.88;;;12.96;87.79
68197;BME280;55019;49.382;11.358;2022-09-09T03:12:08;96355.63;;;13.09;87.44
68197;BME280;55019;49.382;11.358;2022-09-09T03:14:36;96347.94;;;13.01;87.61
68197;BME280;55019;49.382;11.358;2022-09-09T03:17:04;96349.22;;;12.91;87.75
68197;BME280;55019;49.382;11.358;2022-09-09T03:19:30;96351.34;;;12.87;87.49
68197;BME280;55019;49.382;11.358;2022-09-09T03:21:55;96350.47;;;12.80;88.43
68197;BME280;55019;49.382;11.358;2022-09-09T03:24:21;96348.50;;;12.82;88.14
68197;BME280;55019;49.382;11.358;2022-09-09T03:26:48;96349.31;;;12.83;89.02
68197;BME280;55019;49.382;11.358;2022-09-09T03:29:13;96347.41;;;12.91;88.50
68197;BME280;55019;49.382;11.358;2022-09-09T03:31:40;96344.31;;;12.96;88.44
68197;BME280;55019;49.382;11.358;2022-09-09T03:34:06;96350.91;;;12.98;88.10
68197;BME280;55019;49.382;11.358;2022-09-09T03:36:35;96337.78;;;12.99;88.25
68197;BME280;55019;49.382;11.358;2022-09-09T03:39:02;96349.84;;;13.07;87.92
68197;BME280;55019;49.382;11.358;2022-09-09T03:41:29;96345.25;;;13.09;87.96
68197;BME280;55019;49.382;11.358;2022-09-09T03:43:54;96348.22;;;13.06;88.15
68197;BME280;55019;49.382;11.358;2022-09-09T03:46:25;96342.72;;;13.15;87.19
68197;BME280;55019;49.382;11.358;2022-09-09T03:48:51;96347.25;;;13.07;88.04
68197;BME280;55019;49.382;11.358;2022-09-09T03:51:20;96347.25;;;13.07;87.73
68197;BME280;55019;49.382;11.358;2022-09-09T03:53:46;96345.63;;;13.06;87.74
68197;BME280;55019;49.382;11.358;2022-09-09T03:56:12;96337.16;;;12.98;88.02
68197;BME280;55019;49.382;11.358;2022-09-09T03:58:38;96353.13;;;13.01;87.87
68197;BME280;55019;49.382;11.358;2022-09-09T04:01:06;96339.53;;;12.99;87.55
68197;BME280;55019;49.382;11.358;2022-09-09T04:03:33;96344.72;;;12.99;87.75
68197;BME280;55019;49.382;11.358;2022-09-09T04:06:04;96328.19;;;13.00;87.72
68197;BME280;55019;49.382;11.358;2022-09-09T04:08:30;96341.81;;;13.02;87.90
68197;BME280;55019;49.382;11.358;2022-09-09T04:10:57;96353.94;;;13.01;88.40
68197;BME280;55019;49.382;11.358;2022-09-09T04:13:24;96346.06;;;13.09;87.77
68197;BME280;55019;49.382;11.358;2022-09-09T04:15:54;96351.13;;;13.17;87.95
68197;BME280;55019;49.382;11.358;2022-09-09T04:18:20;96345.31;;;13.15;88.74
68197;BME280;55019;49.382;11.358;2022-09-09T04:20:50;96339.34;;;13.15;88.72
68197;BME280;55019;49.382;11.358;2022-09-09T04:23:16;96343.66;;;13.29;88.18
68197;BME280;55019;49.382;11.358;2022-09-09T04:25:48;96340.69;;;13.32;87.86
68197;BME280;55019;49.382;11.358;2022-09-09T04:28:15;96336.25;;;13.26;87.74
68197;BME280;55019;49.382;11.358;2022-09-09T04:30:41;96330.69;;;13.29;87.71
68197;BME280;55019;49.382;11.358;2022-09-09T04:33:08;96333.91;;;13.31;87.15
68197;BME280;55019;49.382;11.358;2022-09-09T04:35:35;96340.53;;;13.33;87.65
68197;BME280;55019;49.382;11.358;2022-09-09T04:38:01;96340.56;;;13.19;88.01
68197;BME280;55019;49.382;11.358;2022-09-09T04:40:30;96349.06;;;13.27;87.68
68197;BME280;55019;49.382;11.358;2022-09-09T04:42:59;96341.72;;;13.16;88.51
68197;BME280;55019;49.382;11.358;2022-09-09T04:45:25;96347.75;;;13.17;88.77
68197;BME280;55019;49.382;11.358;2022-09-09T04:47:51;96336.19;;;13.19;88.86
68197;BME280;55019;49.382;11.358;2022-09-09T04:50:17;96331.94;;;13.12;88.82
68197;BME280;55019;49.382;11.358;2022-09-09T04:52:44;96334.94;;;13.15;89.45
68197;BME280;55019;49.382;11.358;2022-09-09T04:55:10;96342.69;;;13.30;88.39
68197;BME280;55019;49.382;11.358;2022-09-09T04:57:35;96345.34;;;13.36;88.64
68197;BME280;55019;49.382;11.358;2022-09-09T05:00:02;96351.31;;;13.37;87.96
68197;BME280;55019;49.382;11.358;2022-09-09T05:02:28;96349.47;;;13.31;87.88
68197;BME280;55019;49.382;11.358;2022-09-09T05:04:54;96352.56;;;13.41;87.84
68197;BME280;55019;49.382;11.358;2022-09-09T05:07:19;96347.06;;;13.50;87.97
68197;BME280;55019;49.382;11.358;2022-09-09T05:09:45;96343.53;;;13.58;87.18
68197;BME280;55019;49.382;11.358;2022-09-09T05:12:12;96338.97;;;13.60;87.30
68197;BME280;55019;49.382;11.358;2022-09-09T05:14:37;96345.38;;;13.64;87.57
68197;BME280;55019;49.382;11.358;2022-09-09T05:17:04;96352.97;;;13.65;87.20
68197;BME280;55019;49.382;11.358;2022-09-09T05:19:30;96344.03;;;13.68;86.47
68197;BME280;55019;49.382;11.358;2022-09-09T05:21:56;96351.19;;;13.66;86.66
68197;BME280;55019;49.382;11.358;2022-09-09T05:24:22;96342.66;;;13.72;86.57
68197;BME280;55019;49.382;11.358;2022-09-09T05:26:48;96345.06;;;13.73;86.46
68197;BME280;55019;49.382;11.358;2022-09-09T05:29:14;96349.56;;;13.86;86.07
68197;BME280;55019;49.382;11.358;2022-09-09T05:31:39;96352.75;;;13.88;85.78
68197;BME280;55019;49.382;11.358;2022-09-09T05:34:06;96364.13;;;14.08;84.80
68197;BME280;55019;49.382;11.358;2022-09-09T05:36:31;96370.31;;;14.07;85.73
68197;BME280;55019;49.382;11.358;2022-09-09T05:38:57;96361.25;;;14.03;85.25
68197;BME280;55019;49.382;11.358;2022-09-09T05:41:23;96373.50;;;14.09;86.08
68197;BME280;55019;49.382;11.358;2022-09-09T05:43:49;96375.63;;;14.20;85.57
68197;BME280;55019;49.382;11.358;2022-09-09T05:46:17;96376.16;;;14.43;82.92
68197;BME280;55019;49.382;11.358;2022-09-09T05:48:44;96379.56;;;14.43;83.65
68197;BME280;55019;49.382;11.358;2022-09-09T05:51:13;96375.31;;;14.36;83.71
68197;BME280;55019;49.382;11.358;2022-09-09T05:53:41;96371.09;;;14.35;84.16
68197;BME280;55019;49.382;11.358;2022-09-09T05:56:09;96380.84;;;14.60;83.48
68197;BME280;55019;49.382;11.358;2022-09-09T05:58:36;96378.34;;;14.79;82.94
68197;BME280;55019;49.382;11.358;2022-09-09T06:01:10;96388.31;;;14.69;82.52
68197;BME280;55019;49.382;11.358;2022-09-09T06:03:38;96385.50;;;14.71;82.90
68197;BME280;55019;49.382;11.358;2022-09-09T06:06:06;96379.97;;;14.80;81.56
68197;BME280;55019;49.382;11.358;2022-09-09T06:08:33;96386.16;;;14.79;80.61
68197;BME280;55019;49.382;11.358;2022-09-09T06:11:10;96394.31;;;14.70;81.63
68197;BME280;55019;49.382;11.358;2022-09-09T06:13:36;96391.94;;;14.41;82.69
68197;BME280;55019;49.382;11.358;2022-09-09T06:16:15;96388.38;;;14.48;82.85
68197;BME280;55019;49.382;11.358;2022-09-09T06:18:42;96385.03;;;14.54;82.98
68197;BME280;55019;49.382;11.358;2022-09-09T06:21:21;96387.66;;;14.54;82.91
68197;BME280;55019;49.382;11.358;2022-09-09T06:23:47;96393.69;;;14.61;83.26
68197;BME280;55019;49.382;11.358;2022-09-09T06:26:15;96378.88;;;14.62;83.05
68197;BME280;55019;49.382;11.358;2022-09-09T06:28:43;96382.94;;;14.77;82.75
68197;BME280;55019;49.382;11.358;2022-09-09T06:31:10;96386.63;;;14.96;81.14
68197;BME280;55019;49.382;11.358;2022-09-09T06:33:40;96391.13;;;15.21;81.47
68197;BME280;55019;49.382;11.358;2022-09-09T06:36:10;96393.59;;;15.42;78.97
68197;BME280;55019;49.382;11.358;2022-09-09T06:38:36;96380.03;;;15.60;77.90
68197;BME280;55019;49.382;11.358;2022-09-09T06:41:04;96390.28;;;15.74;78.50
68197;BME280;55019;49.382;11.358;2022-09-09T06:43:31;96397.69;;;15.77;77.42
68197;BME280;55019;49.382;11.358;2022-09-09T06:46:09;96394.09;;;15.91;75.92
68197;BME280;55019;49.382;11.358;2022-09-09T06:48:36;96399.28;;;15.91;75.70
68197;BME280;55019;49.382;11.358;2022-09-09T06:53:30;96416.53;;;15.79;76.62
68197;BME280;55019;49.382;11.358;2022-09-09T06:55:58;96415.50;;;15.67;75.83
68197;BME280;55019;49.382;11.358;2022-09-09T06:58:23;96406.28;;;15.71;76.65
68197;BME280;55019;49.382;11.358;2022-09-09T07:00:49;96407.28;;;15.64;75.69
68197;BME280;55019;49.382;11.358;2022-09-09T07:03:14;96408.09;;;15.64;74.36
68197;BME280;55019;49.382;11.358;2022-09-09T07:05:40;96416.91;;;15.70;73.46
68197;BME280;55019;49.382;11.358;2022-09-09T07:08:05;96402.88;;;15.71;74.11
68197;BME280;55019;49.382;11.358;2022-09-09T07:10:31;96410.47;;;15.66;74.54
68197;BME280;55019;49.382;11.358;2022-09-09T07:12:57;96403.50;;;15.66;74.50
68197;BME280;55019;49.382;11.358;2022-09-09T07:15:22;96417.06;;;15.55;73.73
68197;BME280;55019;49.382;11.358;2022-09-09T07:17:48;96409.31;;;15.68;72.87
68197;BME280;55019;49.382;11.358;2022-09-09T07:20:14;96406.28;;;15.65;72.69
68197;BME280;55019;49.382;11.358;2022-09-09T07:22:40;96406.50;;;15.63;72.76
68197;BME280;55019;49.382;11.358;2022-09-09T07:25:06;96405.31;;;15.85;72.74
68197;BME280;55019;49.382;11.358;2022-09-09T07:27:37;96407.09;;;16.04;70.98
68197;BME280;55019;49.382;11.358;2022-09-09T07:30:02;96412.13;;;16.25;70.29
68197;BME280;55019;49.382;11.358;2022-09-09T07:32:28;96417.75;;;16.61;68.17
68197;BME280;55019;49.382;11.358;2022-09-09T07:34:55;96416.66;;;16.81;68.42
68197;BME280;55019;49.382;11.358;2022-09-09T07:37:21;96421.81;;;17.01;67.54
68197;BME280;55019;49.382;11.358;2022-09-09T07:39:47;96422.06;;;16.93;68.47
68197;BME280;55019;49.382;11.358;2022-09-09T07:42:13;96427.03;;;17.07;65.65
68197;BME280;55019;49.382;11.358;2022-09-09T07:44:39;96426.09;;;16.89;66.55
68197;BME280;55019;49.382;11.358;2022-09-09T07:47:05;96427.50;;;16.85;68.58
68197;BME280;55019;49.382;11.358;2022-09-09T07:49:32;96434.16;;;16.74;67.15
68197;BME280;55019;49.382;11.358;2022-09-09T07:51:58;96434.97;;;16.75;68.22
68197;BME280;55019;49.382;11.358;2022-09-09T07:54:23;96425.75;;;16.66;68.37
68197;BME280;55019;49.382;11.358;2022-09-09T07:56:50;96445.81;;;16.72;68.84
68197;BME280;55019;49.382;11.358;2022-09-09T07:59:16;96436.38;;;16.64;69.11
68197;BME280;55019;49.382;11.358;2022-09-09T08:01:49;96436.75;;;16.87;68.77
68197;BME280;55019;49.382;11.358;2022-09-09T08:04:20;96447.28;;;17.18;68.08
68197;BME280;55019;49.382;11.358;2022-09-09T08:06:58;96433.84;;;17.15;68.93
68197;BME280;55019;49.382;11.358;2022-09-09T08:09:25;96436.41;;;17.28;67.96
68197;BME280;55019;49.382;11.358;2022-09-09T08:11:52;96435.16;;;17.30;67.56
68197;BME280;55019;49.382;11.358;2022-09-09T08:14:18;96426.38;;;17.25;66.64
68197;BME280;55019;49.382;11.358;2022-09-09T08:16:46;96436.06;;;17.11;67.34
68197;BME280;55019;49.382;11.358;2022-09-09T08:19:12;96431.56;;;17.38;66.20
68197;BME280;55019;49.382;11.358;2022-09-09T08:21:40;96437.97;;;17.42;65.75
68197;BME280;55019;49.382;11.358;2022-09-09T08:24:07;96434.47;;;17.60;66.10
68197;BME280;55019;49.382;11.358;2022-09-09T08:26:38;96439.81;;;18.76;61.96
68197;BME280;55019;49.382;11.358;2022-09-09T08:29:06;96435.28;;;19.73;59.16
68197;BME280;55019;49.382;11.358;2022-09-09T08:31:37;96435.03;;;20.04;57.75
68197;BME280;55019;49.382;11.358;2022-09-09T08:34:03;96436.59;;;19.93;56.61
68197;BME280;55019;49.382;11.358;2022-09-09T08:36:31;96448.78;;;19.04;57.79
68197;BME280;55019;49.382;11.358;2022-09-09T08:38:59;96449.59;;;19.70;56.66
68197;BME280;55019;49.382;11.358;2022-09-09T08:47:19;96435.56;;;22.10;51.26
68197;BME280;55019;49.382;11.358;2022-09-09T08:55:26;96446.22;;;23.62;47.92
68197;BME280;55019;49.382;11.358;2022-09-09T08:57:56;96445.41;;;23.19;47.45
68197;BME280;55019;49.382;11.358;2022-09-09T09:00:22;96442.53;;;21.49;52.35
68197;BME280;55019;49.382;11.358;2022-09-09T09:03:06;96447.66;;;21.95;52.53
68197;BME280;55019;49.382;11.358;2022-09-09T09:05:42;96452.09;;;23.48;50.81
68197;BME280;55019;49.382;11.358;2022-09-09T09:10:51;96442.28;;;24.12;45.57
68197;BME280;55019;49.382;11.358;2022-09-09T09:13:35;96439.97;;;24.21;44.96
68197;BME280;55019;49.382;11.358;2022-09-09T09:16:17;96444.03;;;24.60;44.41
68197;BME280;55019;49.382;11.358;2022-09-09T09:18:44;96438.34;;;25.19;46.82
68197;BME280;55019;49.382;11.358;2022-09-09T09:23:58;96429.19;;;26.62;40.80
68197;BME280;55019;49.382;11.358;2022-09-09T09:26:30;96429.63;;;25.90;42.45
68197;BME280;55019;49.382;11.358;2022-09-09T09:28:58;96425.97;;;26.41;43.88
68197;BME280;55019;49.382;11.358;2022-09-09T09:31:24;96427.31;;;26.13;40.89
68197;BME280;55019;49.382;11.358;2022-09-09T09:33:53;96425.97;;;26.46;41.29
68197;BME280;55019;49.382;11.358;2022-09-09T09:36:32;96415.94;;;26.33;41.38
68197;BME280;55019;49.382;11.358;2022-09-09T09:39:00;96420.63;;;27.00;43.25
68197;BME280;55019;49.382;11.358;2022-09-09T09:41:38;96423.75;;;27.27;42.97
68197;BME280;55019;49.382;11.358;2022-09-09T09:44:18;96415.78;;;27.37;37.75
68197;BME280;55019;49.382;11.358;2022-09-09T09:46:46;96410.91;;;26.56;39.21
68197;BME280;55019;49.382;11.358;2022-09-09T09:49:12;96405.84;;;26.45;39.70
68197;BME280;55019;49.382;11.358;2022-09-09T09:51:39;96406.91;;;26.63;38.05
68197;BME280;55019;49.382;11.358;2022-09-09T09:56:34;96398.78;;;25.44;41.12
68197;BME280;55019;49.382;11.358;2022-09-09T09:59:00;96403.75;;;26.57;39.65
68197;BME280;55019;49.382;11.358;2022-09-09T10:01:31;96406.88;;;25.94;41.79
68197;BME280;55019;49.382;11.358;2022-09-09T10:04:21;96405.81;;;24.09;44.23
68197;BME280;55019;49.382;11.358;2022-09-09T10:06:49;96417.56;;;23.06;47.11
68197;BME280;55019;49.382;11.358;2022-09-09T10:14:20;96394.72;;;25.98;40.61
68197;BME280;55019;49.382;11.358;2022-09-09T10:19:15;96398.41;;;26.27;40.46
68197;BME280;55019;49.382;11.358;2022-09-09T10:33:49;96386.50;;;26.19;41.89
68197;BME280;55019;49.382;11.358;2022-09-09T10:38:46;96398.84;;;23.08;46.28
68197;BME280;55019;49.382;11.358;2022-09-09T10:41:19;96386.94;;;22.46;47.61
68197;BME280;55019;49.382;11.358;2022-09-09T10:44:17;96396.38;;;21.81;49.45
68197;BME280;55019;49.382;11.358;2022-09-09T10:49:56;96385.38;;;21.28;52.22
68197;BME280;55019;49.382;11.358;2022-09-09T10:52:33;96385.38;;;21.28;52.98
68197;BME280;55019;49.382;11.358;2022-09-09T10:55:24;96380.44;;;21.88;50.61
68197;BME280;55019;49.382;11.358;2022-09-09T10:57:54;96373.19;;;25.03;46.98
68197;BME280;55019;49.382;11.358;2022-09-09T11:00:24;96369.97;;;27.02;38.96
68197;BME280;55019;49.382;11.358;2022-09-09T11:03:01;96359.28;;;28.52;35.58
68197;BME280;55019;49.382;11.358;2022-09-09T11:05:42;96356.03;;;27.93;36.33
68197;BME280;55019;49.382;11.358;2022-09-09T11:08:21;96361.78;;;25.64;40.33
68197;BME280;55019;49.382;11.358;2022-09-09T11:11:04;96374.16;;;23.56;43.85
68197;BME280;55019;49.382;11.358;2022-09-09T11:14:28;96372.06;;;22.73;46.54
68197;BME280;55019;49.382;11.358;2022-09-09T11:19:37;96358.69;;;22.08;48.50
68197;BME280;55019;49.382;11.358;2022-09-09T11:24:43;96362.44;;;21.52;51.09
68197;BME280;55019;49.382;11.358;2022-09-09T11:27:29;96367.38;;;21.09;52.28
68197;BME280;55019;49.382;11.358;2022-09-09T11:30:05;96363.91;;;21.20;52.83
68197;BME280;55019;49.382;11.358;2022-09-09T11:32:59;96358.88;;;20.90;52.78
68197;BME280;55019;49.382;11.358;2022-09-09T11:38:28;96364.00;;;20.85;53.57
68197;BME280;55019;49.382;11.358;2022-09-09T11:41:14;96366.72;;;20.79;53.94
68197;BME280;55019;49.382;11.358;2022-09-09T11:43:49;96365.47;;;20.81;55.13
68197;BME280;55019;49.382;11.358;2022-09-09T11:46:18;96375.41;;;20.68;55.57
68197;BME280;55019;49.382;11.358;2022-09-09T11:49:00;96362.41;;;20.61;55.90
68197;BME280;55019;49.382;11.358;2022-09-09T11:51:28;96358.63;;;20.69;55.58
68197;BME280;55019;49.382;11.358;2022-09-09T11:54:47;96359.78;;;20.84;56.93
68197;BME280;55019;49.382;11.358;2022-09-09T11:56:48;96366.38;;;20.98;58.27
68197;BME280;55019;49.382;11.358;2022-09-09T11:59:32;96354.63;;;21.01;55.77
68197;BME280;55019;49.382;11.358;2022-09-09T12:02:21;96352.59;;;20.91;53.27
68197;BME280;55019;49.382;11.358;2022-09-09T12:07:28;96359.91;;;20.43;57.25
68197;BME280;55019;49.382;11.358;2022-09-09T12:12:29;96337.63;;;20.80;62.05
68197;BME280;55019;49.382;11.358;2022-09-09T12:20:21;96335.22;;;20.79;58.45
68197;BME280;55019;49.382;11.358;2022-09-09T12:22:59;96329.88;;;20.62;59.86
68197;BME280;55019;49.382;11.358;2022-09-09T12:28:11;96308.47;;;20.42;57.76
68197;BME280;55019;49.382;11.358;2022-09-09T12:30:43;96310.19;;;20.14;58.87
68197;BME280;55019;49.382;11.358;2022-09-09T12:33:13;96306.94;;;19.89;60.10
68197;BME280;55019;49.382;11.358;2022-09-09T12:35:43;96316.16;;;19.69;61.26
68197;BME280;55019;49.382;11.358;2022-09-09T12:38:15;96315.97;;;19.41;66.58
68197;BME280;55019;49.382;11.358;2022-09-09T12:40:54;96314.56;;;19.09;70.93
68197;BME280;55019;49.382;11.358;2022-09-09T12:43:22;96326.75;;;18.07;70.91
68197;BME280;55019;49.382;11.358;2022-09-09T12:45:50;96319.50;;;17.85;71.92
68197;BME280;55019;49.382;11.358;2022-09-09T12:48:30;96327.59;;;17.77;73.25
68197;BME280;55019;49.382;11.358;2022-09-09T12:50:57;96330.19;;;17.52;72.78
68197;BME280;55019;49.382;11.358;2022-09-09T12:53:35;96335.00;;;16.81;75.60
68197;BME280;55019;49.382;11.358;2022-09-09T12:56:07;96332.69;;;16.60;78.15
68197;BME280;55019;49.382;11.358;2022-09-09T12:58:33;96329.72;;;16.24;74.75
68197;BME280;55019;49.382;11.358;2022-09-09T13:01:04;96339.53;;;16.15;78.39
68197;BME280;55019;49.382;11.358;2022-09-09T13:03:31;96320.75;;;15.81;77.76
68197;BME280;55019;49.382;11.358;2022-09-09T13:06:09;96311.91;;;15.82;80.79
68197;BME280;55019;49.382;11.358;2022-09-09T13:08:37;96312.34;;;15.86;83.86
68197;BME280;55019;49.382;11.358;2022-09-09T13:11:13;96311.50;;;15.85;81.25
68197;BME280;55019;49.382;11.358;2022-09-09T13:13:42;96308.13;;;15.78;83.13
68197;BME280;55019;49.382;11.358;2022-09-09T13:16:29;96323.94;;;15.96;80.30
68197;BME280;55019;49.382;11.358;2022-09-09T13:19:07;96318.31;;;16.12;80.75
68197;BME280;55019;49.382;11.358;2022-09-09T13:21:38;96338.72;;;16.41;83.32
68197;BME280;55019;49.382;11.358;2022-09-09T13:24:06;96339.63;;;16.72;83.28
68197;BME280;55019;49.382;11.358;2022-09-09T13:26:33;96340.50;;;16.60;82.28
68197;BME280;55019;49.382;11.358;2022-09-09T13:29:17;96337.78;;;16.86;83.98
68197;BME280;55019;49.382;11.358;2022-09-09T13:31:43;96336.19;;;16.78;83.26
68197;BME280;55019;49.382;11.358;2022-09-09T13:39:22;96330.34;;;17.27;78.63
68197;BME280;55019;49.382;11.358;2022-09-09T13:41:48;96324.22;;;17.45;81.23
68197;BME280;55019;49.382;11.358;2022-09-09T13:44:18;96332.75;;;17.65;82.25
68197;BME280;55019;49.382;11.358;2022-09-09T13:46:44;96321.59;;;17.76;82.80
68197;BME280;55019;49.382;11.358;2022-09-09T13:51:43;96327.13;;;17.62;79.79
68197;BME280;55019;49.382;11.358;2022-09-09T13:54:13;96330.72;;;17.37;80.63
68197;BME280;55019;49.382;11.358;2022-09-09T13:56:42;96326.72;;;17.28;80.81
68197;BME280;55019;49.382;11.358;2022-09-09T13:59:16;96317.56;;;17.12;81.65
68197;BME280;55019;49.382;11.358;2022-09-09T14:01:42;96312.19;;;17.07;81.87
68197;BME280;55019;49.382;11.358;2022-09-09T14:04:08;96327.19;;;16.74;84.65
68197;BME280;55019;49.382;11.358;2022-09-09T14:06:36;96328.19;;;16.73;83.24
68197;BME280;55019;49.382;11.358;2022-09-09T14:09:04;96330.25;;;16.65;85.48
68197;BME280;55019;49.382;11.358;2022-09-09T14:11:29;96319.56;;;16.73;85.11
68197;BME280;55019;49.382;11.358;2022-09-09T14:13:54;96304.19;;;16.52;85.63
68197;BME280;55019;49.382;11.358;2022-09-09T14:16:21;96319.63;;;16.53;86.86
68197;BME280;55019;49.382;11.358;2022-09-09T14:18:47;96321.78;;;16.76;86.66
68197;BME280;55019;49.382;11.358;2022-09-09T14:21:13;96328.59;;;16.77;85.81
68197;BME280;55019;49.382;11.358;2022-09-09T14:23:39;96368.38;;;16.66;84.74
68197;BME280;55019;49.382;11.358;2022-09-09T14:26:05;96354.13;;;17.06;85.04
68197;BME280;55019;49.382;11.358;2022-09-09T14:28:31;96344.66;;;17.55;85.75
68197;BME280;55019;49.382;11.358;2022-09-09T14:31:00;96344.13;;;18.26;84.72
68197;BME280;55019;49.382;11.358;2022-09-09T14:33:30;96340.31;;;19.30;79.76
68197;BME280;55019;49.382;11.358;2022-09-09T14:36:16;96337.56;;;19.25;69.73
68197;BME280;55019;49.382;11.358;2022-09-09T14:38:41;96358.59;;;19.00;71.02
68197;BME280;55019;49.382;11.358;2022-09-09T14:41:13;96366.66;;;18.99;73.69
68197;BME280;55019;49.382;11.358;2022-09-09T14:43:39;96374.78;;;19.09;72.69
68197;BME280;55019;49.382;11.358;2022-09-09T14:46:10;96370.72;;;19.31;70.52
68197;BME280;55019;49.382;11.358;2022-09-09T14:48:36;96365.94;;;18.92;68.54
68197;BME280;55019;49.382;11.358;2022-09-09T14:51:13;96362.63;;;18.67;69.31
68197;BME280;55019;49.382;11.358;2022-09-09T14:53:40;96354.72;;;18.31;77.38
68197;BME280;55019;49.382;11.358;2022-09-09T14:56:10;96351.94;;;18.02;76.35
68197;BME280;55019;49.382;11.358;2022-09-09T14:58:37;96356.59;;;17.75;76.52